createdAt,value
2018-10-11T00:01:01.179Z,90.04
2018-10-11T00:03:28.375Z,90.39
2018-10-11T00:05:55.593Z,90.91
2018-10-11T00:08:22.837Z,91.59
2018-10-11T00:10:50.038Z,91.54
2018-10-11T00:13:17.271Z,91.62
2018-10-11T00:15:44.417Z,91.50
2018-10-11T00:18:11.594Z,91.97
2018-10-11T00:20:38.894Z,92.03
2018-10-11T00:23:06.140Z,92.17
2018-10-11T00:25:33.297Z,92.22
2018-10-11T00:28:00.586Z,92.57
2018-10-11T00:30:27.798Z,93.10
2018-10-11T00:32:55.052Z,93.09
2018-10-11T00:35:22.394Z,93.49
2018-10-11T00:37:49.590Z,93.39
2018-10-11T00:40:16.797Z,93.78
2018-10-11T00:42:44.185Z,94.52
2018-10-11T00:45:11.474Z,94.16
2018-10-11T00:47:38.649Z,94.81
2018-10-11T00:50:05.910Z,94.74
2018-10-11T00:52:33.221Z,94.83
2018-10-11T00:55:00.469Z,95.26
2018-10-11T00:57:27.780Z,96.19
2018-10-11T00:59:55.026Z,96.16
2018-10-11T01:02:22.323Z,95.90
2018-10-11T01:04:49.593Z,96.41
2018-10-11T01:07:16.813Z,95.35
2018-10-11T01:09:44.112Z,95.93
2018-10-11T01:12:11.457Z,96.74
2018-10-11T01:14:38.676Z,96.09
2018-10-11T01:17:05.953Z,96.33
2018-10-11T01:19:33.302Z,95.96
2018-10-11T01:22:00.541Z,97.51
2018-10-11T01:24:27.747Z,98.93
2018-10-11T01:26:55.022Z,100.00
2018-10-11T01:29:22.261Z,100.00
2018-10-11T01:31:49.569Z,100.00
2018-10-11T01:34:16.826Z,100.00
2018-10-11T01:36:44.029Z,100.00
2018-10-11T01:39:11.201Z,100.00
2018-10-11T01:41:38.488Z,99.77
2018-10-11T01:44:05.700Z,100.00
2018-10-11T01:46:32.889Z,99.42
2018-10-11T01:49:00.175Z,98.37
2018-10-11T01:51:27.575Z,100.00
2018-10-11T01:53:54.833Z,99.37
2018-10-11T01:56:22.124Z,100.00
2018-10-11T01:58:49.358Z,100.00
2018-10-11T02:01:16.549Z,100.00
2018-10-11T02:03:43.911Z,100.00
2018-10-11T02:06:11.239Z,99.67
2018-10-11T02:08:38.402Z,99.55
2018-10-11T02:11:05.757Z,98.87
2018-10-11T02:13:33.023Z,98.63
2018-10-11T02:16:00.266Z,98.34
2018-10-11T02:18:27.593Z,98.14
2018-10-11T02:20:54.827Z,98.09
2018-10-11T02:23:22.049Z,98.08
2018-10-11T02:25:49.329Z,98.02
2018-10-11T02:28:16.571Z,98.27
2018-10-11T02:30:43.868Z,98.39
2018-10-11T02:33:11.255Z,98.99
2018-10-11T02:35:38.435Z,100.00
2018-10-11T02:38:05.640Z,100.00
2018-10-11T02:40:32.963Z,100.00
2018-10-11T02:43:00.178Z,100.00
2018-10-11T02:45:27.384Z,100.00
2018-10-11T02:47:54.736Z,100.00
2018-10-11T02:50:21.921Z,100.00
2018-10-11T02:52:49.141Z,100.00
2018-10-11T02:55:22.232Z,100.00
2018-10-11T02:58:01.386Z,100.00
2018-10-11T03:00:28.873Z,100.00
2018-10-11T03:02:56.781Z,100.00
2018-10-11T03:05:24.550Z,100.00
2018-10-11T03:07:51.854Z,100.00
2018-10-11T03:10:19.085Z,100.00
2018-10-11T03:12:46.305Z,100.00
2018-10-11T03:15:13.686Z,100.00
2018-10-11T03:17:40.817Z,100.00
2018-10-11T03:20:07.999Z,100.00
2018-10-11T03:22:35.253Z,100.00
2018-10-11T03:25:02.529Z,100.00
2018-10-11T03:27:29.713Z,100.00
2018-10-11T03:29:56.927Z,100.00
2018-10-11T03:32:24.222Z,100.00
2018-10-11T03:34:51.435Z,100.00
2018-10-11T03:37:18.727Z,100.00
2018-10-11T03:39:45.973Z,100.00
2018-10-11T03:42:13.161Z,100.00
2018-10-11T03:44:40.440Z,100.00
2018-10-11T03:47:07.669Z,100.00
2018-10-11T03:49:34.890Z,100.00
2018-10-11T03:52:02.116Z,100.00
2018-10-11T03:54:29.310Z,100.00
2018-10-11T03:56:56.625Z,100.00
2018-10-11T03:59:24.544Z,100.00
2018-10-11T04:01:51.807Z,100.00
2018-10-11T04:04:19.001Z,100.00
2018-10-11T04:06:46.239Z,100.00
2018-10-11T04:09:13.405Z,100.00
2018-10-11T04:11:40.573Z,100.00
2018-10-11T04:14:07.906Z,100.00
2018-10-11T04:16:35.079Z,100.00
2018-10-11T04:19:02.361Z,100.00
2018-10-11T04:21:29.705Z,100.00
2018-10-11T04:23:56.875Z,100.00
2018-10-11T04:26:24.213Z,100.00
2018-10-11T04:28:51.474Z,100.00
2018-10-11T04:31:18.697Z,100.00
2018-10-11T04:33:45.885Z,100.00
2018-10-11T04:36:13.175Z,100.00
2018-10-11T04:38:40.330Z,100.00
2018-10-11T04:41:07.532Z,100.00
2018-10-11T04:43:35.036Z,100.00
2018-10-11T04:46:02.284Z,100.00
2018-10-11T04:48:29.560Z,100.00
2018-10-11T04:50:56.972Z,100.00
2018-10-11T04:53:24.394Z,100.00
2018-10-11T04:55:51.561Z,100.00
2018-10-11T04:58:18.797Z,100.00
2018-10-11T05:00:45.960Z,100.00
2018-10-11T05:03:13.281Z,100.00
2018-10-11T05:05:41.456Z,100.00
2018-10-11T05:08:08.696Z,100.00
2018-10-11T05:10:35.788Z,100.00
2018-10-11T05:13:02.953Z,100.00
2018-10-11T05:15:30.469Z,100.00
2018-10-11T05:17:57.781Z,100.00
2018-10-11T05:20:25.048Z,100.00
2018-10-11T05:22:52.228Z,100.00
2018-10-11T05:25:19.405Z,100.00
2018-10-11T05:27:46.641Z,100.00
2018-10-11T05:30:13.842Z,100.00
2018-10-11T05:32:41.053Z,100.00
2018-10-11T05:35:08.242Z,100.00
2018-10-11T05:37:35.367Z,100.00
2018-10-11T05:40:02.568Z,100.00
2018-10-11T05:42:29.869Z,100.00
2018-10-11T05:45:00.629Z,100.00
2018-10-11T05:47:27.932Z,100.00
2018-10-11T05:49:55.164Z,100.00
2018-10-11T05:52:22.352Z,100.00
2018-10-11T05:54:49.556Z,100.00
2018-10-11T05:57:16.797Z,100.00
2018-10-11T05:59:43.961Z,100.00
2018-10-11T06:02:11.152Z,100.00
2018-10-11T06:04:38.329Z,100.00
2018-10-11T06:07:05.505Z,100.00
2018-10-11T06:09:32.708Z,100.00
2018-10-11T06:11:59.946Z,100.00
2018-10-11T06:14:27.103Z,100.00
2018-10-11T06:16:54.335Z,100.00
2018-10-11T06:19:21.545Z,100.00
2018-10-11T06:21:49.001Z,100.00
2018-10-11T06:24:16.310Z,99.82
2018-10-11T06:26:44.675Z,99.42
2018-10-11T06:29:12.165Z,98.34
2018-10-11T06:31:39.651Z,96.31
2018-10-11T06:34:06.915Z,95.54
2018-10-11T06:36:34.428Z,95.49
2018-10-11T06:39:02.135Z,93.67
2018-10-11T06:41:29.686Z,93.43
2018-10-11T06:43:57.317Z,92.39
2018-10-11T06:46:24.522Z,91.83
2018-10-11T06:48:52.127Z,90.36
2018-10-11T06:51:19.314Z,90.05
2018-10-11T06:53:46.650Z,89.04
2018-10-11T06:56:14.004Z,88.14
2018-10-11T06:58:41.188Z,87.92
2018-10-11T07:01:09.135Z,86.23
2018-10-11T07:03:36.624Z,85.19
2018-10-11T07:06:03.955Z,85.57
2018-10-11T07:08:31.213Z,84.23
2018-10-11T07:10:58.561Z,82.92
2018-10-11T07:13:25.829Z,83.12
2018-10-11T07:15:52.976Z,82.59
2018-10-11T07:18:20.709Z,80.01
2018-10-11T07:20:48.637Z,80.43
2018-10-11T07:23:15.965Z,79.38
2018-10-11T07:25:43.435Z,78.04
2018-10-11T07:28:13.138Z,76.82
2018-10-11T07:30:41.309Z,76.99
2018-10-11T07:33:08.946Z,75.28
2018-10-11T07:35:36.478Z,74.73
2018-10-11T07:38:03.867Z,74.49
2018-10-11T07:40:31.265Z,74.31
2018-10-11T07:42:58.529Z,73.43
2018-10-11T07:45:25.730Z,73.32
2018-10-11T07:47:53.233Z,71.92
2018-10-11T07:50:20.493Z,71.77
2018-10-11T07:52:47.893Z,71.03
2018-10-11T07:55:15.197Z,69.54
2018-10-11T07:57:42.622Z,69.15
2018-10-11T08:00:11.580Z,68.63
2018-10-11T08:02:39.834Z,68.85
2018-10-11T08:05:07.298Z,67.69
2018-10-11T08:07:36.679Z,66.86
2018-10-11T08:10:04.051Z,66.75
2018-10-11T08:12:31.273Z,66.07
2018-10-11T08:14:58.436Z,64.83
2018-10-11T08:17:25.942Z,64.69
2018-10-11T08:19:52.980Z,64.86
2018-10-11T08:22:20.085Z,63.50
2018-10-11T08:24:47.335Z,63.33
2018-10-11T08:27:14.616Z,63.17
2018-10-11T08:29:41.786Z,63.14
2018-10-11T08:32:09.021Z,62.58
2018-10-11T08:34:36.181Z,62.84
2018-10-11T08:37:03.360Z,62.12
2018-10-11T08:39:30.886Z,61.68
2018-10-11T08:42:00.490Z,60.90
2018-10-11T08:44:27.651Z,59.96
2018-10-11T08:46:54.893Z,59.44
2018-10-11T08:49:22.027Z,59.04
2018-10-11T08:51:49.215Z,57.76
2018-10-11T08:54:24.090Z,56.14
2018-10-11T08:56:51.320Z,55.76
2018-10-11T08:59:18.543Z,55.63
2018-10-11T09:01:46.238Z,55.35
2018-10-11T09:04:13.652Z,55.11
2018-10-11T09:06:41.010Z,54.58
2018-10-11T09:09:09.992Z,54.08
2018-10-11T09:11:37.289Z,53.80
2018-10-11T09:14:04.445Z,54.81
2018-10-11T09:16:31.756Z,53.41
2018-10-11T09:18:59.102Z,53.40
2018-10-11T09:21:26.319Z,52.47
2018-10-11T09:23:53.740Z,52.28
2018-10-11T09:26:21.058Z,51.48
2018-10-11T09:28:48.633Z,51.85
2018-10-11T09:31:16.966Z,50.73
2018-10-11T09:33:44.451Z,51.54
2018-10-11T09:36:12.108Z,51.50
2018-10-11T09:38:39.341Z,50.00
2018-10-11T09:41:06.600Z,50.30
2018-10-11T09:43:33.764Z,49.95
2018-10-11T09:46:01.053Z,48.88
2018-10-11T09:48:28.233Z,48.52
2018-10-11T09:50:55.506Z,48.28
2018-10-11T09:53:22.989Z,49.20
2018-10-11T09:55:50.256Z,48.47
2018-10-11T09:58:17.864Z,48.56
2018-10-11T10:00:50.837Z,47.91
2018-10-11T10:03:18.164Z,47.96
2018-10-11T10:05:45.402Z,47.82
2018-10-11T10:08:12.873Z,47.40
2018-10-11T10:10:40.618Z,46.70
2018-10-11T10:13:07.844Z,46.45
2018-10-11T10:15:35.314Z,46.14
2018-10-11T10:18:02.545Z,44.77
2018-10-11T10:20:30.513Z,46.24
2018-10-11T10:22:57.790Z,45.47
2018-10-11T10:25:25.044Z,43.38
2018-10-11T10:27:52.262Z,45.16
2018-10-11T10:30:25.182Z,44.95
2018-10-11T10:32:52.354Z,44.24
2018-10-11T10:35:19.529Z,43.27
2018-10-11T10:37:46.757Z,42.65
2018-10-11T10:40:14.199Z,42.77
2018-10-11T10:42:41.576Z,42.47
2018-10-11T10:45:10.232Z,43.14
2018-10-11T10:47:37.537Z,43.53
2018-10-11T10:50:04.825Z,43.90
2018-10-11T10:52:32.047Z,42.98
2018-10-11T10:54:59.215Z,42.44
2018-10-11T10:57:26.657Z,42.62
2018-10-11T10:59:54.013Z,42.18
2018-10-11T11:02:21.269Z,42.54
2018-10-11T11:04:48.490Z,42.60
2018-10-11T11:07:16.001Z,41.25
2018-10-11T11:09:43.125Z,41.63
2018-10-11T11:12:10.408Z,41.79
2018-10-11T11:14:37.796Z,40.46
2018-10-11T11:17:05.095Z,39.77
2018-10-11T11:19:32.394Z,41.71
2018-10-11T11:21:59.739Z,41.08
2018-10-11T11:24:27.093Z,38.60
2018-10-11T11:26:54.403Z,39.69
2018-10-11T11:29:21.746Z,39.23
2018-10-11T11:31:48.970Z,39.94
2018-10-11T11:34:16.164Z,38.85
2018-10-11T11:36:43.640Z,40.43
2018-10-11T11:39:11.764Z,39.26
2018-10-11T11:41:39.098Z,39.69
2018-10-11T11:44:06.897Z,39.58
2018-10-11T11:46:35.046Z,39.79
2018-10-11T11:49:02.218Z,39.41
2018-10-11T11:51:29.532Z,40.36
2018-10-11T11:56:42.033Z,39.74
2018-10-11T11:59:09.387Z,39.33
2018-10-11T12:01:36.595Z,39.93
2018-10-11T12:04:04.887Z,40.15
2018-10-11T12:06:32.092Z,39.59
2018-10-11T12:08:59.238Z,39.13
2018-10-11T12:11:26.471Z,39.71
2018-10-11T12:13:53.678Z,39.65
2018-10-11T12:16:21.288Z,39.56
2018-10-11T12:18:48.536Z,40.82
2018-10-11T12:21:15.746Z,41.77
2018-10-11T12:23:48.351Z,39.79
2018-10-11T12:26:20.875Z,41.03
2018-10-11T12:28:48.317Z,40.46
2018-10-11T12:31:15.513Z,39.86
2018-10-11T12:33:42.726Z,40.75
2018-10-11T12:36:09.882Z,40.76
2018-10-11T12:38:37.063Z,40.49
2018-10-11T12:41:04.266Z,41.47
2018-10-11T12:43:31.430Z,41.62
2018-10-11T12:45:58.601Z,41.52
2018-10-11T12:48:25.838Z,41.90
2018-10-11T12:50:52.997Z,41.06
2018-10-11T12:53:20.161Z,41.15
2018-10-11T12:55:47.422Z,40.36
2018-10-11T12:58:15.954Z,40.36
2018-10-11T13:00:43.158Z,41.03
2018-10-11T13:03:10.409Z,41.72
2018-10-11T13:05:37.591Z,41.56
2018-10-11T13:08:04.747Z,40.14
2018-10-11T13:10:31.983Z,40.88
2018-10-11T13:13:07.029Z,39.31
2018-10-11T13:15:26.655Z,41.05
2018-10-11T13:17:53.911Z,39.32
2018-10-11T13:20:21.159Z,40.58
2018-10-11T13:22:50.488Z,39.27
2018-10-11T13:25:17.735Z,39.19
2018-10-11T13:27:45.033Z,39.21
2018-10-11T13:30:12.227Z,38.50
2018-10-11T13:32:39.564Z,38.74
2018-10-11T13:35:07.194Z,38.72
2018-10-11T13:37:34.366Z,38.96
2018-10-11T13:40:01.597Z,39.00
2018-10-11T13:42:28.768Z,38.90
2018-10-11T13:44:55.973Z,38.50
2018-10-11T13:47:23.618Z,38.70
2018-10-11T13:49:50.781Z,38.17
2018-10-11T13:52:21.683Z,38.11
2018-10-11T13:54:45.528Z,39.36
2018-10-11T13:57:12.877Z,38.83
2018-10-11T13:59:40.058Z,38.12
2018-10-11T14:02:07.306Z,38.68
2018-10-11T14:04:34.554Z,39.06
2018-10-11T14:07:01.704Z,37.53
2018-10-11T14:09:28.910Z,38.01
2018-10-11T14:11:56.090Z,37.98
2018-10-11T14:14:23.304Z,37.72
2018-10-11T14:16:52.580Z,38.09
2018-10-11T14:19:19.768Z,37.59
2018-10-11T14:21:47.357Z,37.88
2018-10-11T14:24:14.638Z,37.35
2018-10-11T14:26:41.867Z,37.15
2018-10-11T14:29:09.117Z,37.33
2018-10-11T14:31:36.390Z,38.22
2018-10-11T14:34:03.741Z,38.11
2018-10-11T14:36:30.953Z,38.08
2018-10-11T14:38:58.308Z,38.65
2018-10-11T14:41:25.504Z,38.23
2018-10-11T14:43:52.709Z,38.13
2018-10-11T14:46:19.917Z,37.16
2018-10-11T14:48:47.091Z,36.97
2018-10-11T14:51:14.444Z,37.06
2018-10-11T14:53:41.637Z,36.11
2018-10-11T14:56:09.045Z,35.96
2018-10-11T14:58:57.274Z,35.67
2018-10-11T15:01:24.541Z,36.12
2018-10-11T15:03:52.435Z,36.48
2018-10-11T15:06:19.609Z,37.17
2018-10-11T15:08:46.777Z,37.37
2018-10-11T15:11:16.223Z,37.98
2018-10-11T15:13:49.120Z,38.24
2018-10-11T15:16:34.012Z,38.31
2018-10-11T15:19:01.153Z,38.47
2018-10-11T15:21:41.197Z,38.86
2018-10-11T15:24:08.673Z,39.31
2018-10-11T15:26:36.515Z,39.70
2018-10-11T15:29:04.180Z,39.35
2018-10-11T15:31:32.873Z,39.35
2018-10-11T15:34:25.995Z,38.90
2018-10-11T15:36:54.657Z,38.68
2018-10-11T15:39:26.139Z,39.29
2018-10-11T15:41:53.482Z,38.67
2018-10-11T15:44:20.695Z,38.90
2018-10-11T15:46:47.982Z,39.85
2018-10-11T15:49:15.158Z,39.55
2018-10-11T15:51:43.026Z,39.15
2018-10-11T15:54:10.495Z,40.50
2018-10-11T15:56:37.836Z,41.28
2018-10-11T15:59:05.069Z,43.80
2018-10-11T16:01:32.706Z,46.23
2018-10-11T16:03:59.886Z,46.79
2018-10-11T16:06:27.166Z,48.55
2018-10-11T16:08:54.563Z,50.11
2018-10-11T16:11:21.704Z,50.86
2018-10-11T16:13:48.913Z,52.08
2018-10-11T16:16:16.168Z,53.30
2018-10-11T16:18:44.440Z,53.46
2018-10-11T16:21:11.958Z,55.02
2018-10-11T16:23:39.168Z,56.07
2018-10-11T16:26:06.326Z,56.22
2018-10-11T16:28:33.493Z,56.48
2018-10-11T16:31:00.702Z,58.28
2018-10-11T16:33:27.961Z,58.61
2018-10-11T16:35:55.359Z,59.07
2018-10-11T16:38:22.532Z,59.63
2018-10-11T16:40:49.781Z,60.02
2018-10-11T16:43:17.046Z,61.87
2018-10-11T16:45:44.322Z,62.14
2018-10-11T16:48:11.481Z,63.46
2018-10-11T16:50:38.637Z,63.56
2018-10-11T16:53:05.967Z,64.49
2018-10-11T16:55:33.131Z,64.51
2018-10-11T16:58:00.335Z,65.12
2018-10-11T17:00:27.494Z,65.89
2018-10-11T17:02:54.733Z,65.60
2018-10-11T17:05:21.880Z,65.70
2018-10-11T17:07:51.157Z,65.79
2018-10-11T17:10:18.298Z,65.79
2018-10-11T17:12:45.428Z,66.46
2018-10-11T17:15:12.630Z,67.90
2018-10-11T17:17:39.970Z,67.96
2018-10-11T17:20:07.138Z,67.88
2018-10-11T17:22:34.366Z,68.65
2018-10-11T17:25:01.672Z,69.04
2018-10-11T17:27:28.956Z,68.91
2018-10-11T17:29:56.157Z,68.94
2018-10-11T17:32:23.418Z,69.40
2018-10-11T17:34:50.743Z,69.37
2018-10-11T17:37:18.066Z,70.19
2018-10-11T17:39:45.229Z,70.58
2018-10-11T17:42:12.464Z,70.27
2018-10-11T17:44:39.632Z,70.59
2018-10-11T17:47:07.012Z,70.82
2018-10-11T17:49:34.341Z,71.48
2018-10-11T17:52:01.605Z,71.97
2018-10-11T17:54:28.761Z,71.71
2018-10-11T17:56:55.928Z,71.50
2018-10-11T17:59:23.114Z,72.11
2018-10-11T18:01:50.300Z,71.40
2018-10-11T18:04:17.492Z,71.39
2018-10-11T18:06:44.788Z,72.24
2018-10-11T18:09:12.071Z,72.44
2018-10-11T18:11:39.364Z,72.51
2018-10-11T18:14:07.180Z,72.83
2018-10-11T18:16:34.313Z,72.83
2018-10-11T18:19:01.480Z,73.03
2018-10-11T18:21:28.906Z,72.61
2018-10-11T18:23:56.167Z,71.44
2018-10-11T18:26:23.485Z,69.69
2018-10-11T18:28:50.734Z,70.94
2018-10-11T18:31:17.977Z,70.98
2018-10-11T18:33:45.247Z,71.76
2018-10-11T18:36:12.546Z,72.43
2018-10-11T18:38:39.828Z,72.69
2018-10-11T18:41:07.090Z,72.37
2018-10-11T18:43:34.310Z,72.73
2018-10-11T18:46:01.690Z,73.29
2018-10-11T18:48:28.974Z,73.64
2018-10-11T18:50:56.361Z,74.22
2018-10-11T18:53:23.604Z,74.01
2018-10-11T18:55:50.785Z,74.15
2018-10-11T18:58:18.133Z,74.97
2018-10-11T19:00:45.469Z,75.59
2018-10-11T19:03:14.552Z,73.77
2018-10-11T19:05:41.841Z,69.23
2018-10-11T19:08:09.096Z,67.74
2018-10-11T19:10:40.627Z,66.92
2018-10-11T19:13:08.094Z,65.57
2018-10-11T19:15:35.348Z,65.52
2018-10-11T19:18:02.550Z,64.82
2018-10-11T19:20:29.813Z,64.51
2018-10-11T19:22:57.026Z,64.32
2018-10-11T19:25:24.267Z,64.19
2018-10-11T19:27:52.116Z,65.23
2018-10-11T19:30:19.379Z,67.02
2018-10-11T19:32:46.583Z,67.41
2018-10-11T19:35:13.876Z,68.67
2018-10-11T19:37:41.106Z,70.44
2018-10-11T19:40:08.586Z,70.60
2018-10-11T19:42:35.821Z,71.66
2018-10-11T19:45:03.147Z,72.66
2018-10-11T19:47:30.376Z,72.99
2018-10-11T19:49:57.657Z,73.14
2018-10-11T19:52:24.834Z,73.03
2018-10-11T19:54:52.091Z,73.81
2018-10-11T19:57:19.366Z,74.65
2018-10-11T19:59:46.564Z,74.69
2018-10-11T20:02:13.812Z,74.70
2018-10-11T20:04:41.144Z,75.45
2018-10-11T20:07:08.386Z,75.92
2018-10-11T20:09:35.892Z,76.46
2018-10-11T20:12:03.284Z,76.50
2018-10-11T20:14:32.608Z,76.59
2018-10-11T20:16:59.821Z,75.47
2018-10-11T20:19:27.122Z,74.21
2018-10-11T20:21:54.358Z,75.44
2018-10-11T20:24:22.336Z,75.81
2018-10-11T20:26:49.601Z,76.39
2018-10-11T20:29:16.848Z,76.30
2018-10-11T20:31:44.010Z,76.34
2018-10-11T20:34:11.220Z,76.26
2018-10-11T20:36:38.373Z,76.33
2018-10-11T20:39:08.525Z,76.44
2018-10-11T20:41:35.877Z,75.89
2018-10-11T20:44:03.896Z,76.02
2018-10-11T20:46:31.129Z,74.00
2018-10-11T20:48:58.350Z,73.91
2018-10-11T20:51:25.557Z,74.80
2018-10-11T20:53:59.649Z,75.33
2018-10-11T20:56:26.950Z,76.59
2018-10-11T20:58:54.125Z,75.90
2018-10-11T21:01:21.310Z,76.47
2018-10-11T21:03:48.469Z,76.51
2018-10-11T21:06:15.670Z,76.85
2018-10-11T21:08:42.887Z,77.62
2018-10-11T21:11:10.062Z,77.91
2018-10-11T21:13:37.237Z,77.42
2018-10-11T21:16:04.510Z,77.95
2018-10-11T21:18:33.674Z,78.77
2018-10-11T21:21:00.841Z,78.71
2018-10-11T21:23:28.070Z,79.02
2018-10-11T21:25:55.233Z,79.20
2018-10-11T21:28:22.451Z,79.33
2018-10-11T21:30:49.624Z,79.33
2018-10-11T21:33:16.805Z,79.92
2018-10-11T21:35:43.982Z,80.08
2018-10-11T21:38:11.176Z,80.35
2018-10-11T21:40:38.370Z,79.62
2018-10-11T21:43:05.718Z,79.26
2018-10-11T21:45:32.956Z,77.63
2018-10-11T21:48:00.120Z,75.72
2018-10-11T21:50:27.278Z,74.76
2018-10-11T21:52:54.577Z,73.11
2018-10-11T21:55:22.784Z,71.23
2018-10-11T21:57:50.059Z,69.71
2018-10-11T22:00:17.361Z,69.36
2018-10-11T22:02:44.575Z,69.20
2018-10-11T22:05:11.755Z,68.64
2018-10-11T22:07:39.058Z,68.64
2018-10-11T22:10:06.289Z,69.43
2018-10-11T22:12:33.501Z,68.87
2018-10-11T22:15:00.863Z,68.81
2018-10-11T22:17:27.909Z,69.06
2018-10-11T22:19:55.091Z,68.56
2018-10-11T22:22:22.360Z,68.48
2018-10-11T22:24:49.526Z,68.05
2018-10-11T22:27:16.794Z,68.13
2018-10-11T22:29:44.004Z,66.79
2018-10-11T22:32:11.204Z,67.20
2018-10-11T22:34:38.368Z,67.80
2018-10-11T22:37:05.725Z,68.28
2018-10-11T22:39:32.924Z,68.60
2018-10-11T22:42:00.081Z,68.29
2018-10-11T22:44:27.381Z,68.17
2018-10-11T22:46:54.561Z,68.49
2018-10-11T22:49:21.718Z,68.33
2018-10-11T22:51:48.936Z,68.93
2018-10-11T22:54:16.141Z,68.90
2018-10-11T22:56:45.196Z,69.14
2018-10-11T22:59:12.901Z,69.54
2018-10-11T23:01:40.487Z,70.20
2018-10-11T23:04:07.700Z,70.72
2018-10-11T23:06:35.016Z,71.54
2018-10-11T23:09:02.210Z,71.93
2018-10-11T23:11:29.409Z,71.77
2018-10-11T23:13:56.686Z,71.76
2018-10-11T23:16:23.837Z,71.55
2018-10-11T23:18:51.837Z,70.68
2018-10-11T23:21:19.049Z,70.97
2018-10-11T23:23:46.201Z,70.66
2018-10-11T23:26:13.397Z,70.63
2018-10-11T23:28:40.861Z,71.12
2018-10-11T23:31:08.344Z,72.02
2018-10-11T23:33:35.500Z,73.19
2018-10-11T23:36:02.727Z,73.56
2018-10-11T23:38:29.872Z,74.54
2018-10-11T23:40:57.061Z,75.75
2018-10-11T23:43:24.360Z,76.52
2018-10-11T23:45:51.560Z,76.68
2018-10-11T23:48:18.755Z,77.14
2018-10-11T23:50:45.960Z,76.81
2018-10-11T23:53:13.157Z,77.75
2018-10-11T23:55:40.309Z,78.12
2018-10-11T23:58:07.517Z,78.30
